createdAt,value
2023-09-11T00:01:23.362Z,20.47
2023-09-11T00:03:50.878Z,20.45
2023-09-11T00:06:17.544Z,20.43
2023-09-11T00:08:44.291Z,20.39
2023-09-11T00:11:10.951Z,20.38
2023-09-11T00:13:37.442Z,20.34
2023-09-11T00:16:03.972Z,20.30
2023-09-11T00:18:30.514Z,20.28
2023-09-11T00:20:57.025Z,20.23
2023-09-11T00:23:23.589Z,20.20
2023-09-11T00:25:50.148Z,20.15
2023-09-11T00:28:16.604Z,20.12
2023-09-11T00:30:43.199Z,20.09
2023-09-11T00:33:09.881Z,20.08
2023-09-11T00:35:36.913Z,20.05
2023-09-11T00:38:03.579Z,20.02
2023-09-11T00:40:30.086Z,19.97
2023-09-11T00:42:56.538Z,19.93
2023-09-11T00:45:22.971Z,19.89
2023-09-11T00:47:50.308Z,19.85
2023-09-11T00:50:18.509Z,19.83
2023-09-11T00:52:45.675Z,19.80
2023-09-11T00:55:12.933Z,19.77
2023-09-11T00:57:39.815Z,19.75
2023-09-11T01:00:07.160Z,19.72
2023-09-11T01:02:34.711Z,19.70
2023-09-11T01:05:01.679Z,19.68
2023-09-11T01:07:28.296Z,19.64
2023-09-11T01:09:55.141Z,19.61
2023-09-11T01:12:21.629Z,19.56
2023-09-11T01:14:48.245Z,19.53
2023-09-11T01:17:25.456Z,19.50
2023-09-11T01:20:22.502Z,19.47
2023-09-11T01:23:21.154Z,19.44
2023-09-11T01:26:06.727Z,19.40
2023-09-11T01:28:43.726Z,19.38
2023-09-11T01:31:10.978Z,19.36
2023-09-11T01:33:37.903Z,19.34
2023-09-11T01:36:04.517Z,19.31
2023-09-11T01:38:31.063Z,19.27
2023-09-11T01:41:00.432Z,19.23
2023-09-11T01:43:32.902Z,19.20
2023-09-11T01:46:02.298Z,19.18
2023-09-11T01:48:32.147Z,19.16
2023-09-11T01:50:59.608Z,19.12
2023-09-11T01:53:27.856Z,19.11
2023-09-11T01:55:56.644Z,19.08
2023-09-11T01:58:23.154Z,19.06
2023-09-11T02:00:49.630Z,19.03
2023-09-11T02:03:17.816Z,19.01
2023-09-11T02:05:44.509Z,18.97
2023-09-11T02:08:11.071Z,18.92
2023-09-11T02:10:37.542Z,18.88
2023-09-11T02:13:04.078Z,18.86
2023-09-11T02:15:30.565Z,18.83
2023-09-11T02:17:57.138Z,18.80
2023-09-11T02:20:23.702Z,18.78
2023-09-11T02:22:50.180Z,18.76
2023-09-11T02:25:16.670Z,18.75
2023-09-11T02:27:43.103Z,18.72
2023-09-11T02:30:09.694Z,18.67
2023-09-11T02:32:36.263Z,18.64
2023-09-11T02:35:02.832Z,18.59
2023-09-11T02:37:29.334Z,18.59
2023-09-11T02:39:55.835Z,18.56
2023-09-11T02:42:22.286Z,18.53
2023-09-11T02:44:48.820Z,18.51
2023-09-11T02:47:15.268Z,18.46
2023-09-11T02:49:41.799Z,18.43
2023-09-11T02:52:08.485Z,18.42
2023-09-11T02:54:35.116Z,18.38
2023-09-11T02:57:01.982Z,18.36
2023-09-11T02:59:28.560Z,18.35
2023-09-11T03:01:55.182Z,18.33
2023-09-11T03:04:21.654Z,18.32
2023-09-11T03:06:48.158Z,18.30
2023-09-11T03:09:15.009Z,18.27
2023-09-11T03:11:41.623Z,18.19
2023-09-11T03:14:08.287Z,18.18
2023-09-11T03:16:34.827Z,18.18
2023-09-11T03:19:01.281Z,18.19
2023-09-11T03:21:28.664Z,18.15
2023-09-11T03:23:55.232Z,18.14
2023-09-11T03:26:21.761Z,18.14
2023-09-11T03:28:52.371Z,18.12
2023-09-11T03:31:23.420Z,18.12
2023-09-11T03:33:50.294Z,18.09
2023-09-11T03:36:18.430Z,18.08
2023-09-11T03:38:45.544Z,18.06
2023-09-11T03:41:12.235Z,18.03
2023-09-11T03:43:39.077Z,18.04
2023-09-11T03:46:06.256Z,18.03
2023-09-11T03:48:33.908Z,18.00
2023-09-11T03:51:01.180Z,18.00
2023-09-11T03:53:27.952Z,17.98
2023-09-11T03:55:54.489Z,17.95
2023-09-11T03:58:21.105Z,17.92
2023-09-11T04:00:47.668Z,17.88
2023-09-11T04:03:14.995Z,17.83
2023-09-11T04:05:41.765Z,17.78
2023-09-11T04:08:08.270Z,17.73
2023-09-11T04:10:34.713Z,17.69
2023-09-11T04:13:01.198Z,17.67
2023-09-11T04:15:27.685Z,17.66
2023-09-11T04:17:58.597Z,17.66
2023-09-11T04:20:25.589Z,17.65
2023-09-11T04:22:52.972Z,17.61
2023-09-11T04:25:19.473Z,17.60
2023-09-11T04:27:45.975Z,17.58
2023-09-11T04:30:12.752Z,17.54
2023-09-11T04:32:39.342Z,17.47
2023-09-11T04:35:08.530Z,17.45
2023-09-11T04:37:35.321Z,17.43
2023-09-11T04:40:01.927Z,17.42
2023-09-11T04:42:28.777Z,17.40
2023-09-11T04:45:00.100Z,17.38
2023-09-11T04:47:32.585Z,17.33
2023-09-11T04:50:00.361Z,17.33
2023-09-11T04:52:27.009Z,17.32
2023-09-11T04:54:54.426Z,17.31
2023-09-11T04:57:21.102Z,17.29
2023-09-11T04:59:47.628Z,17.27
2023-09-11T05:02:14.107Z,17.24
2023-09-11T05:04:40.669Z,17.24
2023-09-11T05:07:07.320Z,17.23
2023-09-11T05:09:34.046Z,17.22
2023-09-11T05:12:01.207Z,17.24
2023-09-11T05:14:27.853Z,17.24
2023-09-11T05:16:54.332Z,17.25
2023-09-11T05:19:21.375Z,17.23
2023-09-11T05:21:47.866Z,17.24
2023-09-11T05:24:14.313Z,17.24
2023-09-11T05:26:40.834Z,17.24
2023-09-11T05:29:07.299Z,17.24
2023-09-11T05:31:33.788Z,17.25
2023-09-11T05:34:00.486Z,17.24
2023-09-11T05:36:27.059Z,17.26
2023-09-11T05:38:53.599Z,17.24
2023-09-11T05:41:21.590Z,17.25
2023-09-11T05:43:48.078Z,17.25
2023-09-11T05:46:14.555Z,17.24
2023-09-11T05:48:41.241Z,17.25
2023-09-11T05:51:08.032Z,17.30
2023-09-11T05:53:35.860Z,17.33
2023-09-11T05:56:02.684Z,17.35
2023-09-11T05:58:29.146Z,17.38
2023-09-11T06:00:55.699Z,17.38
2023-09-11T06:03:22.316Z,17.40
2023-09-11T06:05:49.004Z,17.44
2023-09-11T06:08:16.275Z,17.46
2023-09-11T06:10:42.836Z,17.51
2023-09-11T06:13:09.276Z,17.56
2023-09-11T06:15:35.773Z,17.62
2023-09-11T06:18:02.347Z,17.67
2023-09-11T06:20:29.195Z,17.74
2023-09-11T06:22:56.857Z,17.79
2023-09-11T06:25:23.524Z,17.87
2023-09-11T06:27:50.416Z,17.92
2023-09-11T06:30:16.936Z,18.01
2023-09-11T06:32:43.660Z,18.08
2023-09-11T06:35:11.089Z,18.17
2023-09-11T06:37:38.370Z,18.29
2023-09-11T06:40:09.027Z,18.40
2023-09-11T06:42:36.289Z,18.54
2023-09-11T06:45:03.963Z,18.64
2023-09-11T06:47:30.594Z,18.78
2023-09-11T06:49:57.407Z,18.91
2023-09-11T06:52:23.903Z,19.05
2023-09-11T06:54:50.486Z,19.20
2023-09-11T06:57:17.056Z,19.32
2023-09-11T06:59:43.553Z,19.50
2023-09-11T07:02:10.034Z,19.66
2023-09-11T07:04:36.618Z,19.78
2023-09-11T07:07:03.234Z,19.97
2023-09-11T07:09:29.746Z,20.13
2023-09-11T07:11:57.362Z,20.28
2023-09-11T07:14:24.626Z,20.40
2023-09-11T07:16:51.084Z,20.55
2023-09-11T07:19:17.662Z,20.69
2023-09-11T07:21:45.729Z,20.80
2023-09-11T07:24:13.172Z,20.96
2023-09-11T07:26:40.110Z,21.11
2023-09-11T07:29:06.643Z,21.28
2023-09-11T07:31:33.771Z,21.44
2023-09-11T07:34:00.714Z,21.61
2023-09-11T07:36:28.857Z,21.82
2023-09-11T07:38:55.458Z,21.95
2023-09-11T07:41:22.081Z,22.07
2023-09-11T07:43:51.667Z,22.13
2023-09-11T07:46:22.904Z,22.21
2023-09-11T07:48:50.694Z,22.36
2023-09-11T07:51:17.336Z,22.59
2023-09-11T07:53:45.469Z,22.68
2023-09-11T07:56:12.879Z,22.89
2023-09-11T07:58:40.284Z,22.98
2023-09-11T08:01:07.031Z,23.07
2023-09-11T08:03:34.377Z,23.15
2023-09-11T08:06:01.637Z,23.28
2023-09-11T08:08:28.749Z,23.38
2023-09-11T08:10:56.935Z,23.49
2023-09-11T08:13:25.194Z,23.58
2023-09-11T08:15:52.152Z,23.70
2023-09-11T08:18:18.804Z,23.82
2023-09-11T08:20:46.961Z,23.92
2023-09-11T08:23:13.512Z,24.06
2023-09-11T08:25:39.969Z,24.22
2023-09-11T08:28:06.871Z,24.43
2023-09-11T08:30:33.355Z,24.49
2023-09-11T08:32:59.980Z,24.59
2023-09-11T08:35:26.630Z,24.66
2023-09-11T08:37:53.152Z,24.80
2023-09-11T08:40:21.666Z,24.79
2023-09-11T08:42:48.108Z,24.85
2023-09-11T08:45:14.594Z,24.95
2023-09-11T08:47:43.323Z,25.03
2023-09-11T08:50:10.694Z,25.05
2023-09-11T08:52:38.930Z,25.16
2023-09-11T08:55:10.122Z,25.22
2023-09-11T08:57:39.959Z,25.32
2023-09-11T09:00:12.785Z,25.48
2023-09-11T09:02:40.332Z,25.69
2023-09-11T09:05:07.920Z,25.78
2023-09-11T09:07:34.955Z,25.74
2023-09-11T09:10:04.067Z,25.94
2023-09-11T09:12:30.630Z,26.03
2023-09-11T09:14:58.047Z,26.18
2023-09-11T09:17:24.547Z,26.32
2023-09-11T09:19:50.993Z,26.43
2023-09-11T09:22:17.677Z,26.55
2023-09-11T09:24:54.882Z,26.58
2023-09-11T09:27:28.246Z,26.78
2023-09-11T09:29:55.395Z,26.83
2023-09-11T09:32:22.143Z,26.85
2023-09-11T09:34:54.888Z,26.85
2023-09-11T09:37:22.894Z,26.99
2023-09-11T09:39:50.035Z,27.13
2023-09-11T09:42:17.192Z,27.32
2023-09-11T09:44:48.786Z,27.35
2023-09-11T09:47:20.368Z,27.39
2023-09-11T09:49:53.596Z,27.43
2023-09-11T09:52:22.704Z,27.63
2023-09-11T09:54:55.981Z,27.71
2023-09-11T09:57:24.736Z,27.82
2023-09-11T09:59:55.038Z,28.00
2023-09-11T10:02:29.329Z,28.05
2023-09-11T10:04:58.843Z,28.02
2023-09-11T10:07:40.412Z,28.18
2023-09-11T10:10:23.520Z,28.39
2023-09-11T10:13:05.425Z,28.44
2023-09-11T10:15:33.654Z,28.40
2023-09-11T10:18:01.526Z,28.65
2023-09-11T10:20:28.358Z,28.63
2023-09-11T10:22:56.447Z,28.54
2023-09-11T10:25:23.581Z,28.42
2023-09-11T10:27:53.279Z,28.34
2023-09-11T10:30:22.738Z,28.59
2023-09-11T10:32:58.669Z,28.69
2023-09-11T10:35:28.181Z,28.81
2023-09-11T10:37:58.820Z,28.92
2023-09-11T10:40:29.516Z,29.03
2023-09-11T10:42:56.249Z,28.92
2023-09-11T10:45:29.925Z,28.86
2023-09-11T10:47:56.879Z,28.94
2023-09-11T10:50:39.759Z,29.11
2023-09-11T10:53:07.048Z,29.30
2023-09-11T10:55:33.745Z,29.49
2023-09-11T10:58:04.195Z,29.55
2023-09-11T11:00:30.637Z,29.77
2023-09-11T11:02:58.496Z,29.84
2023-09-11T11:05:27.224Z,29.78
2023-09-11T11:07:53.784Z,29.84
2023-09-11T11:10:20.892Z,30.05
2023-09-11T11:12:47.565Z,29.88
2023-09-11T11:15:25.810Z,29.82
2023-09-11T11:18:12.642Z,29.88
2023-09-11T11:21:06.307Z,29.80
2023-09-11T11:23:55.357Z,29.87
2023-09-11T11:26:24.921Z,29.82
2023-09-11T11:28:52.150Z,29.79
2023-09-11T11:31:21.383Z,29.75
2023-09-11T11:33:50.060Z,29.88
2023-09-11T11:36:18.419Z,30.19
2023-09-11T11:38:45.626Z,30.31
2023-09-11T11:41:13.303Z,30.45
2023-09-11T11:43:43.342Z,30.32
2023-09-11T11:46:11.494Z,30.15
2023-09-11T11:48:38.951Z,30.02
2023-09-11T11:51:05.927Z,30.07
2023-09-11T11:53:33.549Z,30.09
2023-09-11T11:56:02.177Z,29.99
2023-09-11T11:58:28.683Z,29.93
2023-09-11T12:01:06.575Z,30.07
2023-09-11T12:03:34.861Z,30.34
2023-09-11T12:06:02.717Z,30.49
2023-09-11T12:08:29.485Z,30.55
2023-09-11T12:10:56.006Z,30.52
2023-09-11T12:13:38.646Z,30.51
2023-09-11T12:16:06.125Z,30.87
2023-09-11T12:18:37.347Z,31.01
2023-09-11T12:21:08.855Z,30.96
2023-09-11T12:23:35.513Z,31.05
2023-09-11T12:26:05.569Z,31.24
2023-09-11T12:28:33.740Z,31.27
2023-09-11T12:31:00.618Z,31.42
2023-09-11T12:33:32.790Z,31.45
2023-09-11T12:35:59.589Z,31.44
2023-09-11T12:38:27.357Z,31.55
2023-09-11T12:40:56.324Z,31.36
2023-09-11T12:43:25.856Z,31.38
2023-09-11T12:45:52.365Z,31.50
2023-09-11T12:48:19.122Z,31.49
2023-09-11T12:50:45.892Z,31.42
2023-09-11T12:53:12.499Z,31.16
2023-09-11T12:55:39.034Z,30.96
2023-09-11T12:58:05.655Z,30.85
2023-09-11T13:00:34.150Z,30.70
2023-09-11T13:03:02.347Z,30.64
2023-09-11T13:05:30.172Z,31.01
2023-09-11T13:07:57.953Z,30.95
2023-09-11T13:10:25.120Z,31.10
2023-09-11T13:12:51.563Z,31.11
2023-09-11T13:15:18.629Z,31.05
2023-09-11T13:17:45.757Z,30.93
2023-09-11T13:20:12.668Z,30.90
2023-09-11T13:22:43.272Z,31.10
2023-09-11T13:25:12.712Z,31.07
2023-09-11T13:27:40.572Z,30.97
2023-09-11T13:30:08.710Z,31.10
2023-09-11T13:32:38.392Z,31.30
2023-09-11T13:35:06.868Z,31.41
2023-09-11T13:37:33.987Z,31.33
2023-09-11T13:40:00.438Z,31.21
2023-09-11T13:42:27.030Z,31.01
2023-09-11T13:44:54.932Z,30.98
2023-09-11T13:47:21.506Z,30.95
2023-09-11T13:49:47.972Z,31.03
2023-09-11T13:52:15.778Z,30.99
2023-09-11T13:54:45.505Z,31.04
2023-09-11T13:57:15.092Z,31.10
2023-09-11T13:59:41.768Z,31.06
2023-09-11T14:02:08.314Z,31.08
2023-09-11T14:04:36.338Z,31.12
2023-09-11T14:07:04.402Z,31.18
2023-09-11T14:09:31.594Z,31.34
2023-09-11T14:11:59.319Z,31.37
2023-09-11T14:14:25.896Z,31.47
2023-09-11T14:16:52.355Z,31.53
2023-09-11T14:19:18.951Z,31.65
2023-09-11T14:21:45.407Z,31.79
2023-09-11T14:24:11.865Z,31.76
2023-09-11T14:26:38.852Z,31.72
2023-09-11T14:29:05.342Z,31.76
2023-09-11T14:31:32.898Z,31.74
2023-09-11T14:33:59.373Z,31.81
2023-09-11T14:36:25.840Z,31.67
2023-09-11T14:38:52.972Z,31.53
2023-09-11T14:41:19.465Z,31.46
2023-09-11T14:43:45.909Z,31.33
2023-09-11T14:46:12.415Z,31.26
2023-09-11T14:48:39.078Z,31.57
2023-09-11T14:51:05.800Z,31.70
2023-09-11T14:53:40.459Z,31.90
2023-09-11T14:56:07.247Z,31.87
2023-09-11T14:58:33.721Z,31.80
2023-09-11T15:01:00.219Z,31.67
2023-09-11T15:03:26.823Z,31.63
2023-09-11T15:05:53.450Z,31.59
2023-09-11T15:08:20.204Z,31.59
2023-09-11T15:10:48.595Z,31.59
2023-09-11T15:13:15.508Z,31.54
2023-09-11T15:15:43.524Z,31.56
2023-09-11T15:18:13.450Z,31.61
2023-09-11T15:20:40.009Z,31.55
2023-09-11T15:23:06.972Z,31.46
2023-09-11T15:25:34.353Z,31.36
2023-09-11T15:28:00.936Z,31.34
2023-09-11T15:30:27.459Z,31.32
2023-09-11T15:32:57.027Z,31.31
2023-09-11T15:35:23.732Z,31.28
2023-09-11T15:37:50.468Z,31.27
2023-09-11T15:40:16.949Z,31.21
2023-09-11T15:42:43.430Z,31.18
2023-09-11T15:45:10.136Z,31.16
2023-09-11T15:47:36.681Z,31.15
2023-09-11T15:50:04.117Z,31.14
2023-09-11T15:52:30.559Z,31.06
2023-09-11T15:54:57.010Z,31.03
2023-09-11T15:57:23.561Z,31.00
2023-09-11T15:59:50.144Z,30.99
2023-09-11T16:02:16.696Z,30.96
2023-09-11T16:04:45.641Z,30.93
2023-09-11T16:07:12.196Z,30.91
2023-09-11T16:09:38.648Z,30.87
2023-09-11T16:12:06.048Z,30.85
2023-09-11T16:14:32.600Z,30.83
2023-09-11T16:17:00.811Z,30.79
2023-09-11T16:19:27.290Z,30.78
2023-09-11T16:21:53.810Z,30.83
2023-09-11T16:24:20.384Z,30.85
2023-09-11T16:26:47.000Z,30.85
2023-09-11T16:29:14.634Z,30.81
2023-09-11T16:31:42.094Z,30.81
2023-09-11T16:34:11.391Z,30.70
2023-09-11T16:36:37.934Z,30.57
2023-09-11T16:39:04.415Z,30.47
2023-09-11T16:41:30.927Z,30.38
2023-09-11T16:43:57.532Z,30.31
2023-09-11T16:46:24.440Z,30.25
2023-09-11T16:48:50.941Z,30.20
2023-09-11T16:51:17.470Z,30.14
2023-09-11T16:53:44.032Z,30.08
2023-09-11T16:56:10.597Z,30.02
2023-09-11T16:58:37.087Z,29.98
2023-09-11T17:01:07.931Z,29.91
2023-09-11T17:03:34.644Z,29.86
2023-09-11T17:06:01.217Z,29.78
2023-09-11T17:08:27.814Z,29.69
2023-09-11T17:10:54.406Z,29.61
2023-09-11T17:13:21.177Z,29.53
2023-09-11T17:15:47.838Z,29.46
2023-09-11T17:18:14.604Z,29.42
2023-09-11T17:20:42.162Z,29.36
2023-09-11T17:23:09.080Z,29.28
2023-09-11T17:25:36.032Z,29.23
2023-09-11T17:28:02.695Z,29.16
2023-09-11T17:30:30.110Z,29.05
2023-09-11T17:32:56.676Z,28.95
2023-09-11T17:35:23.340Z,28.84
2023-09-11T17:37:49.805Z,28.74
2023-09-11T17:40:16.656Z,28.62
2023-09-11T17:42:43.134Z,28.53
2023-09-11T17:45:10.057Z,28.45
2023-09-11T17:47:38.936Z,28.35
2023-09-11T17:50:06.393Z,28.29
2023-09-11T17:52:32.970Z,28.24
2023-09-11T17:54:59.485Z,28.18
2023-09-11T17:57:26.075Z,28.10
2023-09-11T17:59:52.647Z,28.05
2023-09-11T18:02:19.259Z,28.00
2023-09-11T18:04:45.879Z,27.97
2023-09-11T18:07:12.776Z,27.92
2023-09-11T18:09:39.279Z,27.86
2023-09-11T18:12:06.191Z,27.80
2023-09-11T18:14:32.651Z,27.74
2023-09-11T18:16:59.147Z,27.69
2023-09-11T18:19:25.590Z,27.64
2023-09-11T18:21:52.047Z,27.56
2023-09-11T18:24:18.657Z,27.51
2023-09-11T18:26:45.140Z,27.46
2023-09-11T18:29:16.017Z,27.39
2023-09-11T18:31:42.929Z,27.34
2023-09-11T18:34:10.703Z,27.28
2023-09-11T18:36:38.347Z,27.20
2023-09-11T18:39:05.799Z,27.15
2023-09-11T18:41:32.507Z,27.09
2023-09-11T18:43:58.976Z,27.04
2023-09-11T18:46:25.920Z,26.95
2023-09-11T18:48:52.969Z,26.87
2023-09-11T18:51:19.853Z,26.82
2023-09-11T18:53:46.348Z,26.76
2023-09-11T18:56:12.824Z,26.70
2023-09-11T18:58:39.554Z,26.62
2023-09-11T19:01:06.464Z,26.54
2023-09-11T19:03:33.954Z,26.46
2023-09-11T19:06:00.578Z,26.38
2023-09-11T19:08:27.606Z,26.32
2023-09-11T19:10:54.250Z,26.27
2023-09-11T19:13:20.805Z,26.23
2023-09-11T19:15:49.136Z,26.19
2023-09-11T19:18:17.137Z,26.10
2023-09-11T19:20:43.769Z,26.06
2023-09-11T19:23:10.224Z,25.98
2023-09-11T19:25:36.762Z,25.93
2023-09-11T19:28:03.426Z,25.87
2023-09-11T19:30:35.403Z,25.81
2023-09-11T19:33:01.930Z,25.77
2023-09-11T19:35:28.481Z,25.74
2023-09-11T19:37:54.990Z,25.69
2023-09-11T19:40:21.454Z,25.62
2023-09-11T19:42:47.907Z,25.52
2023-09-11T19:45:14.555Z,25.45
2023-09-11T19:47:41.066Z,25.40
2023-09-11T19:50:08.267Z,25.35
2023-09-11T19:52:34.741Z,25.32
2023-09-11T19:55:01.305Z,25.29
2023-09-11T19:57:34.017Z,25.23
2023-09-11T20:00:00.623Z,25.17
2023-09-11T20:02:27.411Z,25.09
2023-09-11T20:04:54.013Z,24.98
2023-09-11T20:07:20.758Z,24.90
2023-09-11T20:09:47.254Z,24.83
2023-09-11T20:12:13.751Z,24.81
2023-09-11T20:14:40.352Z,24.79
2023-09-11T20:17:07.943Z,24.76
2023-09-11T20:19:34.472Z,24.75
2023-09-11T20:22:01.021Z,24.71
2023-09-11T20:24:27.560Z,24.62
2023-09-11T20:26:54.191Z,24.52
2023-09-11T20:29:21.847Z,24.48
2023-09-11T20:31:48.312Z,24.48
2023-09-11T20:34:14.852Z,24.47
2023-09-11T20:36:42.790Z,24.43
2023-09-11T20:39:09.377Z,24.37
2023-09-11T20:41:35.871Z,24.31
2023-09-11T20:44:03.924Z,24.26
2023-09-11T20:46:31.113Z,24.23
2023-09-11T20:48:57.698Z,24.19
2023-09-11T20:51:24.225Z,24.14
2023-09-11T20:53:50.695Z,24.10
2023-09-11T20:56:17.394Z,24.07
2023-09-11T20:58:45.382Z,24.02
2023-09-11T21:01:11.927Z,23.95
2023-09-11T21:03:38.823Z,23.89
2023-09-11T21:06:06.084Z,23.83
2023-09-11T21:08:32.610Z,23.80
2023-09-11T21:10:59.596Z,23.76
2023-09-11T21:13:26.857Z,23.74
2023-09-11T21:15:53.560Z,23.72
2023-09-11T21:18:22.108Z,23.71
2023-09-11T21:20:49.223Z,23.64
2023-09-11T21:23:15.830Z,23.58
2023-09-11T21:25:42.337Z,23.51
2023-09-11T21:28:08.776Z,23.44
2023-09-11T21:30:35.347Z,23.40
2023-09-11T21:33:01.977Z,23.34
2023-09-11T21:35:29.603Z,23.33
2023-09-11T21:37:56.170Z,23.31
2023-09-11T21:40:22.672Z,23.29
2023-09-11T21:42:49.116Z,23.24
2023-09-11T21:45:15.869Z,23.17
2023-09-11T21:47:42.415Z,23.12
2023-09-11T21:50:09.125Z,23.07
2023-09-11T21:52:35.554Z,23.03
2023-09-11T21:55:02.114Z,23.02
2023-09-11T21:57:28.679Z,23.00
2023-09-11T21:59:55.177Z,22.94
2023-09-11T22:02:21.678Z,22.90
2023-09-11T22:04:51.810Z,22.85
2023-09-11T22:07:18.319Z,22.79
2023-09-11T22:09:44.782Z,22.74
2023-09-11T22:12:13.121Z,22.70
2023-09-11T22:14:40.072Z,22.67
2023-09-11T22:17:06.592Z,22.64
2023-09-11T22:19:33.121Z,22.64
2023-09-11T22:21:59.568Z,22.62
2023-09-11T22:24:26.045Z,22.57
2023-09-11T22:26:52.825Z,22.46
2023-09-11T22:29:20.580Z,22.40
2023-09-11T22:31:47.383Z,22.37
2023-09-11T22:34:13.905Z,22.37
2023-09-11T22:36:40.455Z,22.34
2023-09-11T22:39:06.971Z,22.32
2023-09-11T22:41:33.505Z,22.30
2023-09-11T22:44:00.007Z,22.28
2023-09-11T22:46:26.513Z,22.23
2023-09-11T22:48:53.047Z,22.19
2023-09-11T22:51:19.636Z,22.15
2023-09-11T22:53:46.185Z,22.10
2023-09-11T22:56:12.639Z,22.07
2023-09-11T22:58:39.089Z,22.04
2023-09-11T23:01:21.130Z,22.02
2023-09-11T23:03:52.066Z,22.01
2023-09-11T23:06:18.597Z,21.98
2023-09-11T23:08:45.151Z,21.93
2023-09-11T23:11:11.722Z,21.90
2023-09-11T23:13:38.223Z,21.86
2023-09-11T23:16:04.900Z,21.83
2023-09-11T23:18:31.496Z,21.78
2023-09-11T23:20:58.021Z,21.76
2023-09-11T23:23:35.219Z,21.73
2023-09-11T23:26:01.672Z,21.70
2023-09-11T23:28:28.386Z,21.67
2023-09-11T23:30:59.186Z,21.62
2023-09-11T23:33:26.184Z,21.58
2023-09-11T23:35:53.092Z,21.54
2023-09-11T23:38:19.583Z,21.49
2023-09-11T23:40:46.042Z,21.46
2023-09-11T23:43:12.652Z,21.45
2023-09-11T23:45:39.191Z,21.43
2023-09-11T23:48:05.990Z,21.41
2023-09-11T23:50:32.497Z,21.38
2023-09-11T23:53:00.132Z,21.34
2023-09-11T23:55:26.940Z,21.30
2023-09-11T23:57:53.381Z,21.25
